Terminal Aerodrome Forecast
Issued by NWS

Home | Current Version | Previous Version | Text Only | Print | Product List | Glossary On
Versions: 1 2 3 4 5 6 7 8 9 10 11 12
000
FTUS46 KMTR 030543
TAFSTS
TAF
KSTS 030543Z 0306/0406 35005KT P6SM FEW200
     FM031300 02007KT P6SM SKC
     FM031800 35005KT P6SM SKC
     FM040300 VRB03KT P6SM SKC=

USA.gov is the U.S. government's official web portal to all federal, state and local government web resources and services.